Time;durP1;ratioP1;P1;durP2;ratioP2;P2;SDS_P1;SDS_P2;PMS_P1;PMS_P2;Temp;Humidity;BMP_temperature;BMP_pressure;BME280_temperature;BME280_humidity;BME280_pressure;Samples;Min_cycle;Max_cycle;Signal;HPM_P1;HPM_P2
2021/07/24 00:01:21;;;;;;;8.47;7.70;;;23.50;86.30;;;;;;5025002;28;20534;-81
2021/07/24 00:03:48;;;;;;;8.40;7.67;;;23.50;86.80;;;;;;5029646;28;20499;-83
2021/07/24 00:06:17;;;;;;;9.00;8.20;;;23.50;86.90;;;;;;5011747;28;20470;-80
2021/07/24 00:08:44;;;;;;;10.10;9.30;;;23.50;87.40;;;;;;5024611;28;20501;-80
2021/07/24 00:11:11;;;;;;;9.40;8.40;;;23.40;87.90;;;;;;5017683;28;20442;-79
2021/07/24 00:13:39;;;;;;;9.27;8.37;;;23.40;88.50;;;;;;5004428;28;20446;-82
2021/07/24 00:16:06;;;;;;;9.37;8.50;;;23.40;89.10;;;;;;5023351;28;20505;-81
2021/07/24 00:18:33;;;;;;;9.27;8.43;;;23.50;89.30;;;;;;5014140;28;20474;-82
2021/07/24 00:21:00;;;;;;;9.67;8.87;;;23.30;89.80;;;;;;5024779;28;20473;-81
2021/07/24 00:23:26;;;;;;;10.37;9.37;;;23.40;89.30;;;;;;5027218;28;21069;-81
2021/07/24 00:25:53;;;;;;;9.10;8.40;;;23.30;90.20;;;;;;5027547;28;20484;-81
2021/07/24 00:28:20;;;;;;;9.60;8.90;;;23.40;90.70;;;;;;5023435;28;20458;-81
2021/07/24 00:30:46;;;;;;;9.80;8.87;;;23.40;90.70;;;;;;5015185;28;20470;-83
2021/07/24 00:33:13;;;;;;;10.40;9.30;;;23.10;91.40;;;;;;5010297;28;21090;-84
2021/07/24 00:35:40;;;;;;;8.73;8.00;;;23.00;92.60;;;;;;5015709;28;20902;-84
2021/07/24 00:38:07;;;;;;;9.40;8.50;;;22.90;92.90;;;;;;5016336;28;20469;-84
2021/07/24 00:40:40;;;;;;;9.53;8.73;;;22.90;92.10;;;;;;5010857;28;20843;-84
2021/07/24 00:43:09;;;;;;;9.07;8.37;;;23.00;91.80;;;;;;4995562;28;20475;-82
2021/07/24 00:45:46;;;;;;;9.97;8.37;;;23.10;91.20;;;;;;5016212;28;20476;-84
2021/07/24 00:48:19;;;;;;;10.10;9.20;;;23.00;91.30;;;;;;5018875;28;20484;-83
2021/07/24 00:50:51;;;;;;;9.07;8.37;;;23.00;91.50;;;;;;5015374;28;20442;-84
2021/07/24 00:53:22;;;;;;;8.73;7.93;;;22.90;91.70;;;;;;5017344;28;20458;-84
2021/07/24 00:55:51;;;;;;;9.50;8.60;;;23.00;91.40;;;;;;5013803;28;20462;-85
2021/07/24 00:58:32;;;;;;;9.57;8.77;;;22.90;91.60;;;;;;5017366;28;20473;-83
2021/07/24 01:01:02;;;;;;;10.07;9.20;;;23.00;91.60;;;;;;5026431;28;20442;-82
2021/07/24 01:03:29;;;;;;;10.50;9.57;;;23.00;91.60;;;;;;5020902;28;20447;-84
2021/07/24 01:05:57;;;;;;;9.80;8.50;;;22.90;91.70;;;;;;4999055;28;20489;-83
2021/07/24 01:08:25;;;;;;;10.20;9.30;;;22.80;92.10;;;;;;5017637;28;20470;-84
2021/07/24 01:10:53;;;;;;;9.87;8.87;;;22.70;92.40;;;;;;5015633;28;20462;-84
2021/07/24 01:13:20;;;;;;;11.13;10.20;;;22.60;92.60;;;;;;5019738;28;20462;-83
2021/07/24 01:15:49;;;;;;;10.10;9.17;;;22.80;92.80;;;;;;5010578;28;20462;-84
2021/07/24 01:18:17;;;;;;;9.67;8.87;;;22.70;92.30;;;;;;4999168;28;20486;-82
2021/07/24 01:20:45;;;;;;;11.43;10.40;;;22.70;92.30;;;;;;5002688;28;20457;-84
2021/07/24 01:23:13;;;;;;;10.87;9.77;;;22.60;92.60;;;;;;4991012;28;20481;-82
2021/07/24 01:25:52;;;;;;;10.90;9.90;;;22.60;92.90;;;;;;5015250;28;20474;-82
2021/07/24 01:28:38;;;;;;;10.47;9.57;;;22.50;93.10;;;;;;5013071;28;20467;-83
2021/07/24 01:31:07;;;;;;;10.20;9.17;;;22.80;92.60;;;;;;5019530;28;20446;-83
2021/07/24 01:33:34;;;;;;;10.60;9.80;;;22.60;93.30;;;;;;5018285;28;20453;-81
2021/07/24 01:36:02;;;;;;;10.87;9.97;;;22.60;93.30;;;;;;5021169;28;20896;-83
2021/07/24 01:38:29;;;;;;;10.13;9.23;;;22.60;93.20;;;;;;5033473;28;20457;-84
2021/07/24 01:40:56;;;;;;;10.83;9.90;;;22.50;93.50;;;;;;5036000;28;20438;-84
2021/07/24 01:43:22;;;;;;;11.03;10.03;;;22.40;93.80;;;;;;5037084;28;20462;-83
2021/07/24 01:45:49;;;;;;;10.37;9.47;;;22.30;94.10;;;;;;5039336;28;20537;-83
2021/07/24 01:48:19;;;;;;;10.53;9.63;;;22.20;94.30;;;;;;5019825;28;20537;-84
2021/07/24 01:53:33;;;;;;;11.23;10.20;;;22.10;94.80;;;;;;5011716;28;20483;-83
2021/07/24 01:56:09;;;;;;;10.83;9.83;;;22.10;94.90;;;;;;5019118;28;20554;-82
2021/07/24 01:58:37;;;;;;;12.30;10.17;;;22.10;94.90;;;;;;5024111;28;20480;-82
2021/07/24 02:01:05;;;;;;;10.27;9.43;;;22.10;94.80;;;;;;4998470;28;20467;-85
2021/07/24 02:03:37;;;;;;;10.40;9.50;;;22.20;94.80;;;;;;5019944;28;20479;-83
2021/07/24 02:06:05;;;;;;;10.43;9.30;;;22.40;95.10;;;;;;5027035;28;20557;-83
2021/07/24 02:08:34;;;;;;;11.47;10.57;;;22.30;94.50;;;;;;5017123;28;20505;-84
2021/07/24 02:11:02;;;;;;;10.40;9.50;;;22.50;94.50;;;;;;5025824;28;20534;-83
2021/07/24 02:13:29;;;;;;;10.20;9.30;;;22.30;94.80;;;;;;5032932;28;20481;-83
2021/07/24 02:15:56;;;;;;;10.57;9.67;;;22.40;94.60;;;;;;4997564;28;20860;-83
2021/07/24 02:18:24;;;;;;;14.43;10.90;;;22.30;94.70;;;;;;5012661;28;20473;-84
2021/07/24 02:20:52;;;;;;;10.93;10.03;;;22.20;95.00;;;;;;5013243;28;20481;-83
2021/07/24 02:23:19;;;;;;;12.17;11.10;;;22.10;95.30;;;;;;4994931;28;20455;-83
2021/07/24 02:25:46;;;;;;;11.07;10.07;;;22.10;95.60;;;;;;5017697;28;20481;-83
2021/07/24 02:28:12;;;;;;;11.63;10.63;;;22.10;95.80;;;;;;5000712;28;20473;-83
2021/07/24 02:30:39;;;;;;;11.07;10.17;;;22.10;95.80;;;;;;5012117;28;20465;-82
2021/07/24 02:33:06;;;;;;;11.33;10.33;;;22.20;95.80;;;;;;5011291;28;20485;-82
2021/07/24 02:35:33;;;;;;;10.27;9.27;;;22.20;95.60;;;;;;5027009;28;20556;-83
2021/07/24 02:38:00;;;;;;;10.67;9.87;;;22.10;96.00;;;;;;5012724;28;20906;-82
2021/07/24 02:40:27;;;;;;;11.13;10.00;;;22.20;95.80;;;;;;5021370;28;20457;-83
2021/07/24 02:42:54;;;;;;;11.70;10.60;;;22.10;96.00;;;;;;5018521;28;20474;-84
2021/07/24 02:45:21;;;;;;;10.53;9.60;;;22.10;95.50;;;;;;4997961;28;20485;-83
2021/07/24 02:47:48;;;;;;;10.43;9.63;;;22.00;96.00;;;;;;4999313;28;21068;-83
2021/07/24 02:50:14;;;;;;;11.83;10.43;;;21.90;95.90;;;;;;5012120;28;20465;-82
2021/07/24 02:52:41;;;;;;;11.43;10.43;;;21.80;96.00;;;;;;5002770;28;20458;-83
2021/07/24 02:55:08;;;;;;;10.80;9.90;;;21.70;96.00;;;;;;5019963;28;20450;-82
2021/07/24 02:57:35;;;;;;;11.73;10.60;;;21.80;96.10;;;;;;5015010;28;20995;-82
2021/07/24 03:00:07;;;;;;;11.33;10.27;;;21.90;95.90;;;;;;5017877;28;20508;-83
2021/07/24 03:02:33;;;;;;;10.93;9.93;;;21.80;96.10;;;;;;5023444;28;20438;-83
2021/07/24 03:05:00;;;;;;;11.57;10.37;;;21.80;96.20;;;;;;5016782;28;20517;-83
2021/07/24 03:07:27;;;;;;;10.43;9.33;;;21.80;96.10;;;;;;5016784;28;20497;-83
2021/07/24 03:09:54;;;;;;;12.37;11.07;;;22.00;95.70;;;;;;5019460;28;21130;-83
2021/07/24 03:12:20;;;;;;;11.93;10.70;;;21.80;95.60;;;;;;5006888;28;20442;-83
2021/07/24 03:14:47;;;;;;;11.50;10.40;;;21.70;95.90;;;;;;5021243;28;20457;-81
2021/07/24 03:17:14;;;;;;;11.60;10.57;;;21.60;96.40;;;;;;5032848;28;20500;-83
2021/07/24 03:19:41;;;;;;;11.17;10.10;;;21.70;96.50;;;;;;5045662;28;20449;-84
2021/07/24 03:22:07;;;;;;;11.87;10.77;;;21.70;96.50;;;;;;5027791;28;20441;-85
2021/07/24 03:24:34;;;;;;;11.10;9.77;;;21.70;96.60;;;;;;5044320;28;20438;-84
2021/07/24 03:27:01;;;;;;;10.80;9.90;;;21.70;96.70;;;;;;5038232;28;20545;-84
2021/07/24 03:29:27;;;;;;;11.57;10.33;;;21.90;97.00;;;;;;5039550;28;20442;-85
2021/07/24 03:31:54;;;;;;;11.80;10.70;;;21.90;97.10;;;;;;5039076;28;20469;-84
2021/07/24 03:34:21;;;;;;;13.10;11.90;;;21.70;97.40;;;;;;5026409;28;20476;-85
2021/07/24 03:36:47;;;;;;;12.63;11.33;;;21.90;97.30;;;;;;5031106;28;20539;-82
2021/07/24 03:39:14;;;;;;;11.87;10.73;;;21.70;97.20;;;;;;5036965;28;20438;-82
2021/07/24 03:41:40;;;;;;;12.40;11.20;;;21.70;97.30;;;;;;5023620;28;20454;-83
2021/07/24 03:44:07;;;;;;;13.20;12.00;;;21.80;96.50;;;;;;5012430;28;20484;-83
2021/07/24 03:46:34;;;;;;;12.40;11.40;;;21.80;96.40;;;;;;5032277;28;20547;-83
2021/07/24 03:49:01;;;;;;;12.40;11.30;;;21.90;96.10;;;;;;5005286;28;20450;-83
2021/07/24 03:51:30;;;;;;;12.60;11.50;;;21.90;96.20;;;;;;5020920;28;20460;-84
2021/07/24 03:53:57;;;;;;;12.57;11.50;;;21.70;96.30;;;;;;5022561;28;20551;-84
2021/07/24 03:56:23;;;;;;;11.47;10.47;;;21.50;96.90;;;;;;5027279;28;20446;-84
2021/07/24 03:58:52;;;;;;;12.47;11.47;;;21.40;97.30;;;;;;5027419;28;20474;-84
2021/07/24 04:01:21;;;;;;;11.60;10.60;;;21.40;97.50;;;;;;5002851;28;20459;-83
2021/07/24 04:03:48;;;;;;;12.47;11.37;;;21.50;97.30;;;;;;5032811;28;20454;-79
2021/07/24 04:06:23;;;;;;;12.27;11.17;;;21.50;97.20;;;;;;5029783;28;20738;-84
2021/07/24 04:08:52;;;;;;;11.50;10.50;;;21.60;96.90;;;;;;5022363;28;20469;-82
2021/07/24 04:11:20;;;;;;;12.23;11.03;;;21.70;96.60;;;;;;5027185;28;20526;-82
2021/07/24 04:13:47;;;;;;;11.90;10.80;;;21.60;96.30;;;;;;5032130;28;20453;-82
2021/07/24 04:16:15;;;;;;;12.50;11.20;;;21.50;96.40;;;;;;5032041;28;20473;-82
2021/07/24 04:18:42;;;;;;;13.20;11.83;;;21.50;96.70;;;;;;5021569;28;20468;-83
2021/07/24 04:21:09;;;;;;;13.63;12.23;;;21.60;96.90;;;;;;5024272;28;20478;-84
2021/07/24 04:23:36;;;;;;;13.20;12.00;;;21.50;97.40;;;;;;5006457;28;20513;-82
2021/07/24 04:26:03;;;;;;;12.10;10.90;;;21.40;97.90;;;;;;5020414;28;20504;-82
2021/07/24 04:28:29;;;;;;;13.13;11.83;;;21.40;97.30;;;;;;5041300;28;20465;-85
2021/07/24 04:30:56;;;;;;;12.93;11.73;;;21.40;97.40;;;;;;5037780;28;20430;-84
2021/07/24 04:33:22;;;;;;;11.53;10.53;;;21.30;97.50;;;;;;5023586;28;20473;-83
2021/07/24 04:35:49;;;;;;;11.87;10.80;;;21.20;97.60;;;;;;5006272;28;20466;-81
2021/07/24 04:38:19;;;;;;;12.50;11.20;;;21.10;97.80;;;;;;5029773;28;20498;-83
2021/07/24 04:40:45;;;;;;;12.93;11.60;;;21.00;97.90;;;;;;5029998;28;20450;-81
2021/07/24 04:43:16;;;;;;;12.90;11.63;;;21.00;98.30;;;;;;5026537;28;20538;-84
2021/07/24 04:45:44;;;;;;;12.50;11.30;;;21.10;98.30;;;;;;5038362;28;20442;-83
2021/07/24 04:48:11;;;;;;;12.13;11.10;;;21.00;98.10;;;;;;5034373;28;20453;-83
2021/07/24 04:50:47;;;;;;;11.63;10.53;;;20.90;98.20;;;;;;5043697;28;20510;-83
2021/07/24 04:53:16;;;;;;;11.73;10.50;;;21.00;98.10;;;;;;5020804;28;20608;-83
2021/07/24 04:55:44;;;;;;;12.60;11.40;;;21.20;97.70;;;;;;5020967;28;20454;-81
2021/07/24 04:58:10;;;;;;;12.20;11.00;;;21.20;97.40;;;;;;5013768;28;20496;-83
2021/07/24 05:00:40;;;;;;;12.57;11.37;;;21.30;97.30;;;;;;5005949;28;20458;-83
2021/07/24 05:03:07;;;;;;;12.93;11.53;;;21.20;97.40;;;;;;5020597;28;20465;-82
2021/07/24 05:05:35;;;;;;;13.40;12.20;;;21.10;97.40;;;;;;5010218;28;20486;-83
2021/07/24 05:08:04;;;;;;;12.27;11.03;;;21.10;97.60;;;;;;5009685;28;20512;-82
2021/07/24 05:10:31;;;;;;;11.87;10.87;;;21.00;97.80;;;;;;5015801;28;20445;-82
2021/07/24 05:12:58;;;;;;;12.30;10.50;;;20.90;98.00;;;;;;5004806;28;21100;-83
2021/07/24 05:15:25;;;;;;;12.67;11.40;;;21.10;97.60;;;;;;5007570;28;20472;-83
2021/07/24 05:17:52;;;;;;;13.97;12.53;;;21.20;97.50;;;;;;5015925;28;20489;-83
2021/07/24 05:20:19;;;;;;;12.77;11.43;;;21.20;97.30;;;;;;5015516;28;20458;-82
2021/07/24 05:22:46;;;;;;;12.60;11.40;;;21.10;97.60;;;;;;5023059;28;20470;-83
2021/07/24 05:25:12;;;;;;;13.23;11.90;;;21.10;98.00;;;;;;5021066;28;20454;-83
2021/07/24 05:27:41;;;;;;;13.30;11.90;;;21.20;98.00;;;;;;5013858;28;21007;-84
2021/07/24 05:30:08;;;;;;;12.30;11.20;;;21.30;97.60;;;;;;5004690;28;20541;-84
2021/07/24 05:32:35;;;;;;;11.57;10.47;;;21.40;97.40;;;;;;5024418;28;20469;-84
2021/07/24 05:35:02;;;;;;;12.83;11.73;;;21.40;97.20;;;;;;5000961;28;20458;-82
2021/07/24 05:37:29;;;;;;;11.93;10.80;;;21.40;97.60;;;;;;5016177;28;20569;-83
2021/07/24 05:39:55;;;;;;;14.23;10.83;;;21.20;97.30;;;;;;5021113;28;20802;-83
2021/07/24 05:42:22;;;;;;;11.30;10.30;;;21.20;97.40;;;;;;5021803;28;20466;-83
2021/07/24 05:44:49;;;;;;;12.53;11.37;;;21.60;97.00;;;;;;5024565;28;20465;-84
2021/07/24 05:47:16;;;;;;;11.90;10.50;;;21.50;96.70;;;;;;4997782;28;20513;-83
2021/07/24 05:49:43;;;;;;;11.10;10.10;;;21.80;95.90;;;;;;4996615;28;20454;-83
2021/07/24 05:52:11;;;;;;;11.27;10.27;;;21.80;95.90;;;;;;5025121;28;20470;-83
2021/07/24 05:54:39;;;;;;;11.80;10.60;;;22.00;95.30;;;;;;5024080;28;20452;-83
2021/07/24 05:57:06;;;;;;;11.67;10.67;;;21.70;95.80;;;;;;5011539;28;20473;-83
2021/07/24 05:59:34;;;;;;;11.97;10.23;;;21.80;96.20;;;;;;5012887;28;20451;-83
2021/07/24 06:02:02;;;;;;;10.53;9.53;;;21.80;96.10;;;;;;5021895;28;20592;-83
2021/07/24 06:04:29;;;;;;;11.77;9.83;;;21.90;95.70;;;;;;5004983;28;20980;-83
2021/07/24 06:06:55;;;;;;;12.87;10.00;;;22.00;95.60;;;;;;5016104;28;20497;-83
2021/07/24 06:09:22;;;;;;;11.13;10.23;;;22.30;94.70;;;;;;5011342;28;20458;-82
2021/07/24 06:11:49;;;;;;;13.13;10.50;;;22.20;94.80;;;;;;5007005;28;20464;-85
2021/07/24 06:14:24;;;;;;;10.97;9.97;;;22.40;94.70;;;;;;5015776;28;20454;-83
2021/07/24 06:16:53;;;;;;;12.13;11.03;;;22.40;94.60;;;;;;5012885;28;20465;-84
2021/07/24 06:19:20;;;;;;;11.10;9.87;;;22.50;94.20;;;;;;5004287;28;20844;-84
2021/07/24 06:21:47;;;;;;;11.20;10.20;;;22.30;94.50;;;;;;5016718;28;20464;-83
2021/07/24 06:24:15;;;;;;;13.50;11.33;;;22.40;94.40;;;;;;5017843;28;20468;-84
2021/07/24 06:26:44;;;;;;;11.20;10.27;;;22.30;94.40;;;;;;5025512;28;20482;-83
2021/07/24 06:29:11;;;;;;;11.93;10.83;;;22.50;94.50;;;;;;5004358;28;20447;-84
2021/07/24 06:31:40;;;;;;;12.97;10.80;;;22.60;94.20;;;;;;5005904;28;20816;-84
2021/07/24 06:34:07;;;;;;;11.40;10.20;;;22.70;94.20;;;;;;5032921;28;20462;-84
2021/07/24 06:36:34;;;;;;;11.63;10.60;;;22.80;93.80;;;;;;5026332;28;20464;-82
2021/07/24 06:39:00;;;;;;;11.93;10.90;;;22.50;93.70;;;;;;5030787;28;20446;-83
2021/07/24 06:41:30;;;;;;;11.93;10.80;;;22.20;94.30;;;;;;5037403;28;20468;-82
2021/07/24 06:43:56;;;;;;;12.50;10.33;;;22.50;94.10;;;;;;5035094;28;20469;-84
2021/07/24 06:46:23;;;;;;;11.30;10.27;;;22.80;93.80;;;;;;5034203;28;20545;-85
2021/07/24 06:48:52;;;;;;;16.07;14.77;;;22.80;93.40;;;;;;5033088;28;20488;-83
2021/07/24 06:51:18;;;;;;;11.77;10.70;;;22.70;93.90;;;;;;5032195;28;20537;-82
2021/07/24 06:53:45;;;;;;;11.43;10.37;;;22.90;93.50;;;;;;5029099;28;20442;-83
2021/07/24 06:56:12;;;;;;;11.53;10.53;;;22.90;93.20;;;;;;5029767;28;20485;-83
2021/07/24 06:58:39;;;;;;;10.83;9.83;;;22.90;93.40;;;;;;5026959;28;20494;-84
2021/07/24 07:01:07;;;;;;;11.27;10.07;;;23.10;93.20;;;;;;5016822;28;20458;-83
2021/07/24 07:03:35;;;;;;;12.67;11.47;;;23.10;93.20;;;;;;5031953;28;20495;-83
2021/07/24 07:06:06;;;;;;;12.13;11.03;;;23.10;93.20;;;;;;5032516;28;20805;-83
2021/07/24 07:08:34;;;;;;;11.80;10.60;;;22.90;93.60;;;;;;5006868;28;20555;-83
2021/07/24 07:11:03;;;;;;;12.13;11.03;;;23.00;93.90;;;;;;5009702;28;20512;-82
2021/07/24 07:13:30;;;;;;;11.63;10.60;;;23.10;93.80;;;;;;5032876;28;20991;-83
2021/07/24 07:15:57;;;;;;;13.17;11.77;;;23.20;93.90;;;;;;5037246;28;20449;-84
2021/07/24 07:18:24;;;;;;;11.20;10.07;;;23.40;93.70;;;;;;5029539;28;20457;-84
2021/07/24 07:20:51;;;;;;;11.07;10.03;;;23.50;93.00;;;;;;5035853;28;20446;-83
2021/07/24 07:23:19;;;;;;;11.10;10.00;;;23.30;92.90;;;;;;5012481;28;20513;-84
2021/07/24 07:25:46;;;;;;;11.10;10.00;;;23.30;93.50;;;;;;5020218;28;20438;-84
2021/07/24 07:28:13;;;;;;;11.00;9.90;;;23.30;93.70;;;;;;5028055;28;20556;-82
2021/07/24 07:30:40;;;;;;;11.77;10.57;;;23.40;93.60;;;;;;5018447;28;20453;-84
2021/07/24 07:33:07;;;;;;;11.80;10.60;;;23.40;94.10;;;;;;5036137;28;20441;-83
2021/07/24 07:35:34;;;;;;;11.33;10.40;;;23.50;93.60;;;;;;5033378;28;20457;-84
2021/07/24 07:38:01;;;;;;;11.30;10.20;;;23.60;93.10;;;;;;5039769;28;20541;-83
2021/07/24 07:40:28;;;;;;;12.27;10.40;;;23.40;93.20;;;;;;5033875;28;20461;-85
2021/07/24 07:42:55;;;;;;;11.20;9.87;;;23.20;93.60;;;;;;5036743;28;20451;-82
2021/07/24 07:45:22;;;;;;;12.77;11.43;;;23.50;93.40;;;;;;5024808;28;20457;-83
2021/07/24 07:47:49;;;;;;;12.27;11.17;;;23.60;93.10;;;;;;5004789;28;20974;-83
2021/07/24 07:50:16;;;;;;;10.00;9.10;;;23.80;92.20;;;;;;5019682;28;20518;-83
2021/07/24 07:52:42;;;;;;;10.43;9.43;;;23.80;91.70;;;;;;5003801;28;20450;-83
2021/07/24 07:55:09;;;;;;;10.90;9.87;;;23.50;92.30;;;;;;5023951;28;20546;-83
2021/07/24 07:57:39;;;;;;;12.00;11.00;;;23.70;92.00;;;;;;5005835;28;20478;-83
2021/07/24 08:00:08;;;;;;;12.27;11.27;;;23.40;92.60;;;;;;5024448;28;20464;-83
2021/07/24 08:02:34;;;;;;;11.00;10.00;;;23.70;92.80;;;;;;5005092;28;20453;-82
2021/07/24 08:05:02;;;;;;;11.27;10.17;;;23.80;92.60;;;;;;5002451;28;20454;-81
2021/07/24 08:07:29;;;;;;;10.43;9.53;;;23.60;92.60;;;;;;5019901;28;20478;-83
2021/07/24 08:09:56;;;;;;;11.53;10.43;;;23.90;92.60;;;;;;5003009;28;20431;-84
2021/07/24 08:12:25;;;;;;;11.57;10.17;;;23.60;92.70;;;;;;5034704;28;20445;-84
2021/07/24 08:14:55;;;;;;;11.53;10.00;;;23.40;92.80;;;;;;5029308;28;20509;-84
2021/07/24 08:17:22;;;;;;;11.57;10.50;;;23.50;93.00;;;;;;5020692;28;20473;-84
2021/07/24 08:19:51;;;;;;;10.63;9.70;;;23.40;93.30;;;;;;5030512;28;20489;-83
2021/07/24 08:22:17;;;;;;;11.27;10.30;;;23.50;93.20;;;;;;5040841;28;20503;-85
2021/07/24 08:24:44;;;;;;;12.10;10.33;;;23.40;93.20;;;;;;5027935;28;20500;-83
2021/07/24 08:27:11;;;;;;;11.17;10.07;;;23.20;93.40;;;;;;5027259;28;20494;-82
2021/07/24 08:29:38;;;;;;;12.00;10.83;;;23.10;93.80;;;;;;5034610;28;20526;-83
2021/07/24 08:32:08;;;;;;;11.30;10.27;;;22.90;94.10;;;;;;5035130;28;20467;-83
2021/07/24 08:34:35;;;;;;;11.83;10.73;;;22.80;94.50;;;;;;5026903;28;20438;-84
2021/07/24 08:37:02;;;;;;;10.87;9.80;;;22.70;94.70;;;;;;5048858;22;20504;-83
2021/07/24 08:39:29;;;;;;;11.27;10.17;;;23.10;94.20;;;;;;4954383;29;20455;-83
2021/07/24 08:41:56;;;;;;;12.03;10.20;;;22.90;94.20;;;;;;4954994;29;20451;-83
2021/07/24 08:44:23;;;;;;;11.00;10.00;;;23.00;94.50;;;;;;5395303;23;20510;-85
2021/07/24 08:46:53;;;;;;;11.90;10.90;;;23.10;94.40;;;;;;4972368;28;20489;-83
2021/07/24 08:49:19;;;;;;;11.93;10.83;;;23.20;93.90;;;;;;4987573;28;20851;-84
2021/07/24 08:51:48;;;;;;;12.37;11.17;;;23.30;93.70;;;;;;4989875;28;20456;-83
2021/07/24 08:54:14;;;;;;;12.70;11.40;;;23.40;93.60;;;;;;4990906;28;20452;-84
2021/07/24 08:56:47;;;;;;;11.87;10.77;;;23.40;93.80;;;;;;4997911;28;20463;-83
2021/07/24 08:59:18;;;;;;;12.20;11.10;;;23.30;94.00;;;;;;4995418;28;21067;-83
2021/07/24 09:01:53;;;;;;;12.23;11.03;;;23.20;94.10;;;;;;4991176;28;20459;-82
2021/07/24 09:04:22;;;;;;;12.10;11.00;;;23.10;94.30;;;;;;4987785;28;20465;-82
2021/07/24 09:06:53;;;;;;;11.73;10.53;;;23.10;94.10;;;;;;4986081;28;20471;-84
2021/07/24 09:09:20;;;;;;;12.40;11.03;;;23.20;94.20;;;;;;4967381;28;20452;-83
2021/07/24 09:11:46;;;;;;;12.93;11.63;;;23.20;94.20;;;;;;4992403;28;20759;-83
2021/07/24 09:14:13;;;;;;;12.90;11.13;;;23.20;94.10;;;;;;4989879;28;20503;-84
2021/07/24 09:16:40;;;;;;;16.50;10.70;;;22.90;94.60;;;;;;4992258;28;20539;-84
2021/07/24 09:19:08;;;;;;;14.27;11.90;;;23.00;95.10;;;;;;4987272;28;20837;-84
2021/07/24 09:21:40;;;;;;;12.00;10.80;;;23.20;94.90;;;;;;4973447;28;20869;-84
2021/07/24 09:24:20;;;;;;;14.20;13.00;;;23.10;95.00;;;;;;4987022;28;20459;-82
2021/07/24 09:26:47;;;;;;;13.37;12.13;;;23.20;95.00;;;;;;4990148;28;20811;-84
2021/07/24 09:29:18;;;;;;;14.10;12.70;;;23.30;94.80;;;;;;4988886;28;20456;-83
2021/07/24 09:31:45;;;;;;;13.63;12.43;;;23.20;94.90;;;;;;4974715;28;20463;-83
2021/07/24 09:34:14;;;;;;;17.07;11.93;;;23.10;95.40;;;;;;4971691;28;20470;-83
2021/07/24 09:36:42;;;;;;;14.70;11.80;;;23.20;95.00;;;;;;4992313;28;20443;-83
2021/07/24 09:39:17;;;;;;;12.47;11.27;;;23.20;94.80;;;;;;4985718;28;21028;-85
2021/07/24 09:41:48;;;;;;;11.60;10.50;;;23.40;94.80;;;;;;4980869;28;20481;-83
2021/07/24 09:44:31;;;;;;;13.40;12.10;;;23.50;94.50;;;;;;4972108;28;21076;-83
2021/07/24 09:46:58;;;;;;;13.37;12.07;;;23.50;94.60;;;;;;5002044;28;20515;-83
2021/07/24 09:49:37;;;;;;;16.47;14.97;;;23.40;94.80;;;;;;4989458;28;20514;-84
2021/07/24 09:52:17;;;;;;;18.17;13.67;;;23.20;95.20;;;;;;4987240;28;20469;-83
2021/07/24 09:54:44;;;;;;;13.90;12.50;;;23.30;95.00;;;;;;4989238;28;20466;-84
2021/07/24 09:57:31;;;;;;;18.93;12.13;;;23.20;95.20;;;;;;4980560;28;20507;-84
2021/07/24 10:00:22;;;;;;;13.23;12.00;;;23.20;95.20;;;;;;4992145;28;20440;-82
2021/07/24 10:03:00;;;;;;;14.13;12.80;;;23.10;95.30;;;;;;4988307;28;20483;-83
2021/07/24 10:05:40;;;;;;;12.73;11.53;;;23.20;95.50;;;;;;4994286;28;20576;-84
2021/07/24 10:08:11;;;;;;;13.30;11.93;;;23.20;95.60;;;;;;4994817;28;20485;-84
2021/07/24 10:10:40;;;;;;;14.90;12.00;;;23.30;95.30;;;;;;4995905;28;20450;-84
2021/07/24 10:13:11;;;;;;;17.83;12.73;;;23.40;95.30;;;;;;4994901;28;20455;-84
2021/07/24 10:15:40;;;;;;;13.87;12.60;;;23.50;95.30;;;;;;4976312;28;20771;-84
2021/07/24 10:18:09;;;;;;;12.87;11.57;;;23.20;95.60;;;;;;4979121;28;20487;-84
2021/07/24 10:20:38;;;;;;;14.87;12.00;;;23.40;95.40;;;;;;4980654;28;20920;-85
2021/07/24 10:23:06;;;;;;;13.50;12.10;;;23.30;95.30;;;;;;4983868;28;20471;-83
2021/07/24 10:25:57;;;;;;;12.77;11.57;;;23.40;95.60;;;;;;4991232;28;20439;-84
2021/07/24 10:28:54;;;;;;;14.90;13.40;;;23.30;96.00;;;;;;4989032;28;21376;-83
2021/07/24 10:31:32;;;;;;;14.33;13.03;;;23.40;95.90;;;;;;4967222;28;20460;-83
2021/07/24 10:34:05;;;;;;;12.83;11.63;;;23.50;95.80;;;;;;4994353;28;20525;-81
2021/07/24 10:36:34;;;;;;;14.17;12.77;;;23.30;95.40;;;;;;4995875;28;20449;-84
2021/07/24 10:39:16;;;;;;;14.43;12.93;;;23.30;96.10;;;;;;4998588;28;20546;-83
2021/07/24 10:41:48;;;;;;;13.00;11.80;;;23.00;96.60;;;;;;4986686;28;20539;-83
2021/07/24 10:44:16;;;;;;;13.53;12.23;;;23.00;96.90;;;;;;4978928;28;20486;-83
2021/07/24 10:46:43;;;;;;;13.33;12.00;;;23.30;96.90;;;;;;4981091;28;20455;-83
2021/07/24 10:49:22;;;;;;;15.07;13.57;;;23.60;96.10;;;;;;5001179;28;20529;-84
2021/07/24 10:51:58;;;;;;;18.03;13.27;;;23.30;96.00;;;;;;4996308;28;20457;-84
2021/07/24 10:54:25;;;;;;;13.50;12.30;;;23.20;96.80;;;;;;5001319;28;20812;-83
2021/07/24 10:56:52;;;;;;;13.83;12.40;;;23.10;97.80;;;;;;4978010;28;20482;-85
2021/07/24 10:59:19;;;;;;;14.43;13.03;;;23.20;98.20;;;;;;4983660;28;20465;-83
2021/07/24 11:01:48;;;;;;;13.73;12.43;;;23.40;98.20;;;;;;4977933;28;20471;-82
2021/07/24 11:04:37;;;;;;;14.20;12.90;;;23.50;98.10;;;;;;4982609;28;20459;-84
2021/07/24 11:07:13;;;;;;;16.20;14.60;;;23.60;97.30;;;;;;4997675;28;20525;-84
2021/07/24 11:09:42;;;;;;;16.20;14.23;;;23.40;97.90;;;;;;4993036;28;20446;-84
2021/07/24 11:12:09;;;;;;;15.80;14.30;;;23.10;98.80;;;;;;5000512;28;20459;-84
2021/07/24 11:14:36;;;;;;;16.60;14.27;;;23.10;99.10;;;;;;5000703;28;20443;-83
2021/07/24 11:17:06;;;;;;;16.90;15.30;;;23.10;98.80;;;;;;4997688;28;20876;-83
2021/07/24 11:19:49;;;;;;;14.67;13.10;;;22.90;99.00;;;;;;4993547;28;20798;-84
2021/07/24 11:22:21;;;;;;;16.27;14.57;;;22.70;99.50;;;;;;4999891;28;20462;-84
2021/07/24 11:24:51;;;;;;;14.80;13.50;;;22.50;99.90;;;;;;5000459;28;20447;-84
2021/07/24 11:27:29;;;;;;;14.50;13.20;;;22.70;99.90;;;;;;4998417;28;20489;-85
2021/07/24 11:30:02;;;;;;;17.33;15.67;;;22.50;99.90;;;;;;4999451;28;20454;-84
2021/07/24 11:32:36;;;;;;;15.20;13.70;;;22.60;99.90;;;;;;4974657;28;20599;-84
2021/07/24 11:35:11;;;;;;;16.63;15.03;;;22.80;99.90;;;;;;5007197;28;20454;-83
2021/07/24 11:37:49;;;;;;;17.90;16.20;;;22.80;99.90;;;;;;5012087;28;20519;-85
2021/07/24 11:40:24;;;;;;;17.60;15.87;;;22.60;99.90;;;;;;5020158;28;20828;-84
2021/07/24 11:43:03;;;;;;;17.07;15.43;;;22.70;99.90;;;;;;4998018;28;20438;-85
2021/07/24 11:45:32;;;;;;;18.67;16.80;;;22.90;99.90;;;;;;5007690;28;20462;-84
2021/07/24 11:48:16;;;;;;;18.20;16.03;;;22.90;99.90;;;;;;5000700;28;20554;-84
2021/07/24 11:50:45;;;;;;;18.80;16.90;;;22.60;99.90;;;;;;4981981;28;20455;-82
2021/07/24 11:53:12;;;;;;;21.33;16.00;;;22.40;99.90;;;;;;4979275;28;20466;-81
2021/07/24 11:55:42;;;;;;;17.10;15.30;;;22.20;99.90;;;;;;4990038;28;20456;-82
2021/07/24 11:58:14;;;;;;;18.03;15.70;;;22.00;99.90;;;;;;5002324;28;20471;-83
2021/07/24 12:00:43;;;;;;;19.00;16.40;;;22.00;99.90;;;;;;4996907;28;20451;-82
2021/07/24 12:03:19;;;;;;;19.93;17.73;;;22.10;99.90;;;;;;4999791;28;20447;-83
2021/07/24 12:05:59;;;;;;;17.63;15.67;;;22.30;99.90;;;;;;5007596;28;20451;-85
2021/07/24 12:08:28;;;;;;;20.37;18.33;;;22.20;99.90;;;;;;4993562;28;20560;-84
2021/07/24 12:10:55;;;;;;;20.20;17.90;;;22.00;99.90;;;;;;5003487;28;20541;-84
2021/07/24 12:13:25;;;;;;;22.33;20.03;;;21.60;99.90;;;;;;5007318;28;20451;-82
2021/07/24 12:16:01;;;;;;;22.00;19.13;;;21.60;99.90;;;;;;5009610;28;20435;-83
2021/07/24 12:18:34;;;;;;;20.40;17.87;;;21.70;99.90;;;;;;4997218;28;20485;-83
2021/07/24 12:21:20;;;;;;;20.10;17.03;;;21.50;99.90;;;;;;5001640;28;20479;-81
2021/07/24 12:24:00;;;;;;;17.90;16.00;;;21.60;99.90;;;;;;4997667;28;20446;-83
2021/07/24 12:26:28;;;;;;;18.50;16.33;;;21.60;99.90;;;;;;4981416;28;20577;-83
2021/07/24 12:28:56;;;;;;;21.03;18.10;;;21.50;99.90;;;;;;4999319;28;20502;-83
2021/07/24 12:31:29;;;;;;;19.50;17.50;;;21.60;99.90;;;;;;4998868;28;20448;-84
2021/07/24 12:34:02;;;;;;;19.33;17.43;;;21.40;99.90;;;;;;4991116;28;20455;-84
2021/07/24 12:36:30;;;;;;;18.10;16.17;;;21.30;99.90;;;;;;4996393;28;20443;-82
2021/07/24 12:38:57;;;;;;;18.43;16.63;;;21.50;99.90;;;;;;4980473;28;20451;-83
2021/07/24 12:41:32;;;;;;;20.00;18.00;;;21.80;99.90;;;;;;4997324;28;20451;-83
2021/07/24 12:44:06;;;;;;;19.87;17.83;;;21.90;99.90;;;;;;4995329;28;21063;-82